Time;durP1;ratioP1;P1;durP2;ratioP2;P2;SDS_P1;SDS_P2;PMS_P1;PMS_P2;Temp;Humidity;BMP_temperature;BMP_pressure;BME280_temperature;BME280_humidity;BME280_pressure;Samples;Min_cycle;Max_cycle;Signal;HPM_P1;HPM_P2
2021/03/07 00:00:55;;;;;;;14.93;11.05;;;3.90;84.50;;;;;;2081563;28;20048;-68
2021/03/07 00:01:56;;;;;;;14.10;10.75;;;3.80;84.40;;;;;;2081838;28;20491;-68
2021/03/07 00:02:57;;;;;;;15.32;11.23;;;3.80;84.50;;;;;;2073350;28;20030;-68
2021/03/07 00:03:57;;;;;;;16.13;11.70;;;3.80;84.60;;;;;;2073284;28;20111;-69
2021/03/07 00:04:58;;;;;;;16.40;11.70;;;3.90;84.50;;;;;;2082099;28;20087;-68
2021/03/07 00:05:59;;;;;;;15.05;11.52;;;3.80;84.40;;;;;;2081962;28;20453;-68
2021/03/07 00:07:00;;;;;;;15.18;11.15;;;3.90;84.50;;;;;;2082026;28;20022;-68
2021/03/07 00:08:01;;;;;;;15.27;10.82;;;3.80;84.40;;;;;;2072650;28;20030;-69
2021/03/07 00:09:02;;;;;;;13.75;10.68;;;3.80;84.50;;;;;;2072043;28;20093;-68
2021/03/07 00:10:08;;;;;;;15.75;11.60;;;3.80;84.50;;;;;;2073012;28;20396;-68
2021/03/07 00:11:11;;;;;;;14.05;11.10;;;3.80;84.80;;;;;;2074295;28;20057;-68
2021/03/07 00:12:11;;;;;;;17.73;12.20;;;3.70;84.70;;;;;;2064941;28;20038;-69
2021/03/07 00:13:12;;;;;;;16.70;12.18;;;3.70;85.00;;;;;;2065123;28;20022;-68
2021/03/07 00:14:13;;;;;;;16.20;11.90;;;3.60;85.40;;;;;;2081999;28;20022;-68
2021/03/07 00:15:14;;;;;;;16.63;12.75;;;3.60;85.70;;;;;;2082012;28;20029;-69
2021/03/07 00:16:15;;;;;;;20.00;12.98;;;3.50;86.20;;;;;;2081894;28;20021;-68
2021/03/07 00:17:16;;;;;;;18.35;12.70;;;3.50;86.50;;;;;;2081977;28;20025;-69
2021/03/07 00:18:16;;;;;;;18.17;12.52;;;3.40;86.70;;;;;;2072959;28;20034;-70
2021/03/07 00:19:17;;;;;;;17.67;12.63;;;3.40;86.90;;;;;;2072390;28;20084;-68
2021/03/07 00:20:21;;;;;;;20.45;12.68;;;3.40;87.00;;;;;;2081918;28;20033;-69
2021/03/07 00:21:21;;;;;;;17.88;12.82;;;3.30;87.20;;;;;;2082003;28;20505;-68
2021/03/07 00:22:22;;;;;;;17.65;12.48;;;3.30;87.50;;;;;;2073257;28;20049;-69
2021/03/07 00:23:23;;;;;;;17.30;12.38;;;3.30;88.00;;;;;;2073279;28;20543;-68
2021/03/07 00:24:23;;;;;;;17.02;12.45;;;3.20;88.20;;;;;;2081597;28;20046;-68
2021/03/07 00:25:24;;;;;;;20.40;13.25;;;3.20;88.50;;;;;;2081377;28;20151;-68
2021/03/07 00:26:25;;;;;;;18.90;13.20;;;3.20;88.50;;;;;;2082304;28;20108;-67
2021/03/07 00:27:26;;;;;;;19.00;13.35;;;3.20;89.30;;;;;;2082223;28;20728;-69
2021/03/07 00:28:26;;;;;;;17.20;12.88;;;3.10;89.70;;;;;;2081878;28;20037;-68
2021/03/07 00:29:28;;;;;;;17.58;12.40;;;3.10;89.60;;;;;;2081525;28;20508;-68
2021/03/07 00:30:28;;;;;;;16.65;12.13;;;3.10;89.50;;;;;;2083496;28;20061;-69
2021/03/07 00:31:29;;;;;;;17.13;12.38;;;3.10;89.40;;;;;;2074147;28;20132;-69
2021/03/07 00:32:29;;;;;;;16.35;12.05;;;3.10;89.30;;;;;;2066815;28;20034;-69
2021/03/07 00:33:30;;;;;;;15.85;11.75;;;3.10;89.20;;;;;;2074620;28;20072;-68
2021/03/07 00:34:30;;;;;;;15.85;11.57;;;3.00;89.20;;;;;;2083157;28;20135;-69
2021/03/07 00:35:31;;;;;;;14.20;11.05;;;3.00;89.30;;;;;;2074430;28;20067;-69
2021/03/07 00:36:32;;;;;;;15.82;11.88;;;3.00;89.30;;;;;;2074394;28;20371;-68
2021/03/07 00:37:32;;;;;;;14.27;10.85;;;3.00;89.50;;;;;;2081832;28;20019;-68
2021/03/07 00:38:33;;;;;;;14.60;10.70;;;3.00;89.40;;;;;;2081426;28;20028;-68
2021/03/07 00:39:34;;;;;;;14.68;10.98;;;2.90;89.50;;;;;;2072216;28;20053;-68
2021/03/07 00:40:34;;;;;;;13.65;10.05;;;2.90;89.60;;;;;;2073104;28;20101;-69
2021/03/07 00:41:35;;;;;;;13.70;10.50;;;2.90;89.70;;;;;;2073020;28;20559;-68
2021/03/07 00:42:39;;;;;;;13.85;10.10;;;2.90;89.80;;;;;;2073380;28;20156;-67
2021/03/07 00:43:40;;;;;;;12.93;10.10;;;2.90;89.90;;;;;;2081780;28;20088;-68
2021/03/07 00:44:40;;;;;;;13.23;9.45;;;2.90;89.80;;;;;;2081689;28;20093;-69
2021/03/07 00:45:41;;;;;;;13.63;9.90;;;2.80;89.60;;;;;;2081714;28;20404;-69
2021/03/07 00:46:46;;;;;;;12.57;9.45;;;2.80;89.50;;;;;;2081815;28;20029;-68
2021/03/07 00:47:47;;;;;;;13.07;9.45;;;2.80;89.60;;;;;;2081628;28;20037;-68
2021/03/07 00:48:47;;;;;;;12.55;9.43;;;2.80;89.60;;;;;;2072247;28;20025;-68
2021/03/07 00:49:48;;;;;;;11.52;8.77;;;2.80;89.70;;;;;;2072494;28;20037;-68
2021/03/07 00:50:49;;;;;;;12.15;8.80;;;2.80;89.70;;;;;;2081215;28;20120;-69
2021/03/07 00:51:49;;;;;;;11.52;9.00;;;2.80;89.70;;;;;;2064646;28;20034;-69
2021/03/07 00:52:50;;;;;;;11.38;8.80;;;2.80;89.70;;;;;;2064841;28;20042;-68
2021/03/07 00:53:51;;;;;;;11.52;9.07;;;2.80;89.70;;;;;;2080935;28;20045;-69
2021/03/07 00:54:51;;;;;;;12.05;9.02;;;2.70;89.70;;;;;;2081080;28;20021;-69
2021/03/07 00:55:52;;;;;;;12.73;9.32;;;2.80;89.70;;;;;;2080925;28;20064;-68
2021/03/07 00:56:53;;;;;;;15.05;9.75;;;2.70;89.60;;;;;;2081087;28;20569;-68
2021/03/07 00:57:54;;;;;;;12.77;9.15;;;2.70;89.60;;;;;;2072836;28;20040;-68
2021/03/07 00:58:55;;;;;;;13.27;9.15;;;2.70;89.50;;;;;;2072484;28;20026;-67
2021/03/07 00:59:55;;;;;;;13.55;9.70;;;2.70;89.30;;;;;;2081216;28;20035;-68
2021/03/07 01:00:56;;;;;;;14.20;9.65;;;2.80;89.40;;;;;;2072809;28;20053;-69
2021/03/07 01:01:56;;;;;;;12.63;9.80;;;2.80;89.40;;;;;;2072736;28;20560;-69
2021/03/07 01:02:58;;;;;;;13.05;9.85;;;2.80;89.50;;;;;;2080908;28;20025;-68
2021/03/07 01:03:58;;;;;;;13.40;9.38;;;2.80;89.50;;;;;;2072834;28;20026;-69
2021/03/07 01:04:59;;;;;;;13.50;9.70;;;2.80;89.60;;;;;;2073063;28;20033;-69
2021/03/07 01:06:00;;;;;;;13.68;9.25;;;2.80;89.40;;;;;;2081713;28;20104;-68
2021/03/07 01:07:00;;;;;;;14.27;9.23;;;2.80;89.40;;;;;;2081689;28;20021;-68
2021/03/07 01:08:01;;;;;;;12.00;9.30;;;2.80;89.30;;;;;;2081662;28;20032;-69
2021/03/07 01:09:03;;;;;;;11.90;8.75;;;2.90;89.30;;;;;;2072131;28;20022;-69
2021/03/07 01:10:11;;;;;;;12.85;8.95;;;2.90;89.10;;;;;;2064827;28;20109;-68
2021/03/07 01:11:11;;;;;;;12.25;8.82;;;2.90;88.70;;;;;;2073698;28;20132;-68
2021/03/07 01:12:12;;;;;;;12.77;9.02;;;2.90;88.40;;;;;;2081580;28;20033;-68
2021/03/07 01:13:16;;;;;;;12.40;9.40;;;2.90;88.00;;;;;;2081738;28;20029;-69
2021/03/07 01:14:17;;;;;;;13.25;8.90;;;2.90;87.90;;;;;;2081555;28;20022;-69
2021/03/07 01:15:25;;;;;;;12.75;9.20;;;2.90;87.70;;;;;;2081669;28;20551;-69
2021/03/07 01:16:26;;;;;;;10.90;8.15;;;2.90;87.60;;;;;;2072811;28;20026;-69
2021/03/07 01:17:26;;;;;;;11.25;8.52;;;2.90;87.80;;;;;;2072961;28;20128;-69
2021/03/07 01:18:27;;;;;;;12.15;8.40;;;2.90;87.70;;;;;;2081589;28;20025;-69
2021/03/07 01:19:32;;;;;;;10.85;8.25;;;2.90;87.70;;;;;;2080770;28;20025;-70
2021/03/07 01:20:36;;;;;;;10.93;8.40;;;2.90;87.70;;;;;;2072610;28;20026;-69
2021/03/07 01:21:37;;;;;;;11.63;8.32;;;2.90;87.70;;;;;;2065005;28;20011;-69
2021/03/07 01:22:38;;;;;;;11.73;8.48;;;2.90;87.70;;;;;;2072798;28;20109;-69
2021/03/07 01:23:38;;;;;;;10.27;7.85;;;2.90;87.80;;;;;;2081683;28;20022;-69
2021/03/07 01:24:39;;;;;;;12.13;8.18;;;2.90;87.80;;;;;;2081531;28;20021;-69
2021/03/07 01:25:40;;;;;;;13.00;8.50;;;2.90;87.80;;;;;;2081459;28;20091;-70
2021/03/07 01:26:40;;;;;;;11.43;7.93;;;2.90;87.80;;;;;;2072586;28;20029;-69
2021/03/07 01:27:41;;;;;;;11.77;8.20;;;3.00;87.80;;;;;;2072863;28;20026;-70
2021/03/07 01:28:42;;;;;;;10.90;7.85;;;3.00;87.80;;;;;;2080476;28;20116;-69
2021/03/07 01:29:42;;;;;;;11.18;8.18;;;3.00;87.70;;;;;;2080343;28;20029;-69
2021/03/07 01:30:43;;;;;;;11.18;7.78;;;3.00;87.70;;;;;;2081415;28;20029;-69
2021/03/07 01:31:44;;;;;;;11.02;7.72;;;3.00;87.70;;;;;;2081311;28;20489;-69
2021/03/07 01:32:45;;;;;;;10.98;8.23;;;3.00;87.70;;;;;;2081353;28;20032;-70
2021/03/07 01:33:46;;;;;;;11.00;8.20;;;3.00;87.80;;;;;;2081447;28;20473;-70
2021/03/07 01:34:46;;;;;;;10.70;8.35;;;3.00;87.80;;;;;;2081426;28;20022;-70
2021/03/07 01:35:47;;;;;;;10.18;7.82;;;3.00;87.80;;;;;;2072478;28;20029;-70
2021/03/07 01:36:48;;;;;;;10.52;7.18;;;3.00;87.70;;;;;;2072547;28;20059;-70
2021/03/07 01:37:50;;;;;;;10.25;7.45;;;2.90;87.70;;;;;;2081451;28;20139;-70
2021/03/07 01:38:50;;;;;;;11.15;8.07;;;2.90;87.70;;;;;;2080974;28;20017;-70
2021/03/07 01:39:53;;;;;;;12.05;8.35;;;2.90;87.60;;;;;;2080935;28;20074;-70
2021/03/07 01:40:54;;;;;;;11.35;8.02;;;2.90;87.60;;;;;;2081453;28;20044;-70
2021/03/07 01:41:54;;;;;;;11.13;8.02;;;2.90;87.60;;;;;;2072477;28;20026;-70
2021/03/07 01:42:58;;;;;;;10.57;7.97;;;2.90;87.70;;;;;;2072647;28;20026;-70
2021/03/07 01:43:58;;;;;;;11.32;8.27;;;2.90;87.60;;;;;;2081467;28;20025;-70
2021/03/07 01:44:59;;;;;;;12.02;8.35;;;2.90;87.60;;;;;;2081313;28;20060;-70
2021/03/07 01:46:00;;;;;;;11.68;8.48;;;2.80;87.60;;;;;;2072425;28;20117;-70
2021/03/07 01:47:00;;;;;;;11.07;8.18;;;2.80;87.60;;;;;;2072507;28;20033;-70
2021/03/07 01:48:05;;;;;;;12.93;9.20;;;2.80;87.70;;;;;;2081216;28;20179;-70
2021/03/07 01:49:05;;;;;;;12.30;8.70;;;2.80;87.50;;;;;;2071603;28;20485;-70
2021/03/07 01:50:07;;;;;;;12.98;8.95;;;2.80;87.50;;;;;;2072454;28;20072;-70
2021/03/07 01:51:08;;;;;;;13.65;9.40;;;2.80;87.60;;;;;;2081313;28;20078;-70
2021/03/07 01:52:09;;;;;;;13.57;9.10;;;2.70;87.70;;;;;;2081350;28;20029;-70
2021/03/07 01:53:09;;;;;;;12.43;8.70;;;2.70;87.80;;;;;;2081287;28;20025;-69
2021/03/07 01:54:10;;;;;;;13.95;9.02;;;2.70;87.90;;;;;;2072533;28;20030;-70
2021/03/07 01:55:11;;;;;;;13.10;9.38;;;2.70;88.10;;;;;;2072546;28;20034;-70
2021/03/07 01:56:12;;;;;;;13.15;9.20;;;2.70;88.30;;;;;;2081169;28;20025;-69
2021/03/07 01:57:13;;;;;;;13.32;8.85;;;2.70;88.30;;;;;;2072573;28;20101;-70
2021/03/07 01:58:19;;;;;;;11.93;8.45;;;2.70;88.40;;;;;;2072359;28;20041;-70
2021/03/07 01:59:22;;;;;;;15.18;9.75;;;2.70;88.50;;;;;;2080452;28;20025;-70
2021/03/07 02:00:23;;;;;;;15.70;10.52;;;2.70;88.10;;;;;;2072385;28;20081;-70
2021/03/07 02:01:24;;;;;;;16.20;10.52;;;2.70;88.10;;;;;;2072470;28;20045;-69
2021/03/07 02:02:25;;;;;;;16.98;11.02;;;2.70;88.00;;;;;;2081144;28;20130;-70
2021/03/07 02:03:27;;;;;;;16.85;11.80;;;2.70;87.60;;;;;;2081333;28;20087;-70
2021/03/07 02:04:28;;;;;;;16.60;11.45;;;2.80;87.10;;;;;;2081179;28;20045;-70
2021/03/07 02:05:29;;;;;;;16.40;11.20;;;2.80;86.70;;;;;;2081297;28;20060;-70
2021/03/07 02:06:30;;;;;;;16.35;11.32;;;2.80;86.40;;;;;;2081102;28;20029;-70
2021/03/07 02:07:30;;;;;;;16.17;11.25;;;2.80;86.40;;;;;;2072337;28;20033;-70
2021/03/07 02:08:31;;;;;;;15.82;10.98;;;2.80;86.40;;;;;;2072434;28;20057;-70
2021/03/07 02:09:32;;;;;;;17.33;10.75;;;2.80;86.40;;;;;;2079593;28;20032;-70
2021/03/07 02:10:35;;;;;;;21.45;13.13;;;2.80;86.50;;;;;;2081127;28;20481;-70
2021/03/07 02:11:38;;;;;;;19.27;13.07;;;2.90;85.90;;;;;;2081231;28;20374;-70
2021/03/07 02:12:40;;;;;;;20.90;13.48;;;2.90;85.30;;;;;;2072385;28;20622;-70
2021/03/07 02:13:43;;;;;;;19.92;12.65;;;2.90;85.20;;;;;;2064392;28;20037;-70
2021/03/07 02:14:44;;;;;;;21.33;13.63;;;2.90;85.30;;;;;;2064238;28;20023;-70
2021/03/07 02:15:48;;;;;;;20.63;13.43;;;2.90;85.10;;;;;;2064246;28;20053;-70
2021/03/07 02:16:48;;;;;;;22.42;13.77;;;2.90;85.30;;;;;;2072602;28;20540;-70
2021/03/07 02:17:49;;;;;;;21.67;14.13;;;2.90;84.90;;;;;;2072406;28;20057;-70
2021/03/07 02:18:52;;;;;;;24.33;15.15;;;2.90;84.40;;;;;;2071888;28;20536;-70
2021/03/07 02:19:53;;;;;;;23.40;15.10;;;2.80;83.80;;;;;;2080815;28;20025;-70
2021/03/07 02:20:59;;;;;;;22.73;14.15;;;2.80;83.70;;;;;;2081126;28;20435;-70
2021/03/07 02:22:03;;;;;;;21.77;14.40;;;2.80;84.40;;;;;;2081067;28;20029;-70
2021/03/07 02:23:17;;;;;;;22.40;14.73;;;2.80;83.70;;;;;;2080955;28;20037;-70
2021/03/07 02:24:18;;;;;;;24.27;15.32;;;2.80;83.60;;;;;;2072231;28;20500;-70
2021/03/07 02:25:18;;;;;;;24.63;15.20;;;2.80;84.00;;;;;;2064360;28;20030;-70
2021/03/07 02:26:19;;;;;;;23.75;15.07;;;2.80;84.40;;;;;;2072233;28;20021;-70
2021/03/07 02:27:20;;;;;;;23.08;15.13;;;2.80;84.70;;;;;;2080607;28;20059;-70
2021/03/07 02:28:24;;;;;;;24.17;15.18;;;2.80;84.70;;;;;;2081030;28;20055;-70
2021/03/07 02:29:24;;;;;;;23.23;15.05;;;2.80;84.70;;;;;;2080204;28;20489;-69
2021/03/07 02:30:26;;;;;;;24.65;14.70;;;2.80;84.70;;;;;;2072219;28;20145;-69
2021/03/07 02:31:28;;;;;;;22.30;14.60;;;2.80;84.60;;;;;;2071621;28;20037;-67
2021/03/07 02:32:33;;;;;;;22.88;14.52;;;2.80;84.70;;;;;;2080985;28;20049;-68
2021/03/07 02:33:37;;;;;;;26.85;15.25;;;2.80;84.80;;;;;;2072254;28;20022;-67
2021/03/07 02:34:45;;;;;;;24.65;15.45;;;2.80;85.20;;;;;;2072723;28;20676;-68
2021/03/07 02:35:51;;;;;;;26.90;16.02;;;2.80;84.50;;;;;;2081039;28;20024;-68
2021/03/07 02:36:57;;;;;;;26.70;15.90;;;2.80;84.40;;;;;;2072040;28;20083;-67
2021/03/07 02:38:01;;;;;;;25.38;16.15;;;2.80;84.10;;;;;;2072977;28;20504;-68
2021/03/07 02:39:03;;;;;;;27.45;16.10;;;2.80;84.10;;;;;;2080408;28;20028;-68
2021/03/07 02:40:05;;;;;;;26.08;16.30;;;2.80;84.00;;;;;;2080814;28;20021;-69
2021/03/07 02:41:08;;;;;;;24.20;15.88;;;2.80;84.30;;;;;;2080885;28;20520;-69
2021/03/07 02:42:13;;;;;;;27.42;16.23;;;2.90;83.40;;;;;;2081034;28;20508;-69
2021/03/07 02:43:15;;;;;;;25.98;16.63;;;2.90;83.20;;;;;;2080902;28;20033;-69
2021/03/07 02:44:18;;;;;;;27.20;17.02;;;2.90;82.70;;;;;;2072081;28;20507;-69
2021/03/07 02:45:22;;;;;;;25.70;16.63;;;2.90;82.10;;;;;;2072646;28;20022;-69
2021/03/07 02:46:24;;;;;;;26.42;16.80;;;2.90;82.10;;;;;;2081168;28;20033;-70
2021/03/07 02:47:27;;;;;;;27.48;17.20;;;2.90;81.80;;;;;;2073717;28;20026;-70
2021/03/07 02:48:29;;;;;;;26.88;16.42;;;2.90;81.70;;;;;;2074883;28;20118;-70
2021/03/07 02:49:33;;;;;;;26.85;16.80;;;2.90;82.10;;;;;;2081951;28;20040;-70
2021/03/07 02:50:34;;;;;;;25.42;16.40;;;2.90;81.60;;;;;;2083506;28;20463;-70
2021/03/07 02:51:36;;;;;;;24.65;16.42;;;2.90;81.50;;;;;;2083053;28;20021;-70
2021/03/07 02:52:40;;;;;;;25.60;16.48;;;2.90;81.50;;;;;;2074295;28;20358;-70
2021/03/07 02:53:42;;;;;;;26.10;16.25;;;3.00;81.70;;;;;;2074263;28;20033;-70
2021/03/07 02:54:44;;;;;;;24.65;15.95;;;3.00;81.90;;;;;;2081326;28;20079;-70
2021/03/07 02:55:47;;;;;;;25.00;16.15;;;3.00;82.00;;;;;;2072418;28;20038;-70
2021/03/07 02:56:52;;;;;;;25.65;16.23;;;3.00;82.10;;;;;;2072849;28;20034;-70
2021/03/07 02:57:55;;;;;;;26.23;16.58;;;3.00;82.30;;;;;;2080637;28;20506;-70
2021/03/07 02:59:01;;;;;;;27.23;16.73;;;3.00;82.20;;;;;;2071978;28;20029;-70
2021/03/07 03:00:06;;;;;;;26.13;16.60;;;3.00;82.10;;;;;;2072953;28;20424;-70
2021/03/07 03:01:11;;;;;;;25.45;15.55;;;3.00;82.00;;;;;;2081390;28;20022;-70
2021/03/07 03:02:12;;;;;;;25.25;16.15;;;3.00;82.00;;;;;;2081490;28;20052;-70
2021/03/07 03:03:13;;;;;;;25.90;17.20;;;3.00;81.60;;;;;;2081015;28;20029;-69
2021/03/07 03:04:15;;;;;;;29.83;17.98;;;3.10;80.80;;;;;;2083116;28;20501;-70
2021/03/07 03:05:16;;;;;;;27.95;17.17;;;3.10;80.20;;;;;;2084611;28;20499;-70
2021/03/07 03:06:18;;;;;;;26.90;16.55;;;3.10;80.20;;;;;;2084994;28;20377;-70
2021/03/07 03:07:20;;;;;;;24.45;15.73;;;3.10;80.40;;;;;;2084947;28;20021;-70
2021/03/07 03:08:22;;;;;;;25.42;16.27;;;3.10;80.60;;;;;;2085258;28;20025;-71
2021/03/07 03:09:23;;;;;;;25.67;15.95;;;3.10;80.60;;;;;;2084878;28;20033;-70
2021/03/07 03:10:24;;;;;;;25.45;15.98;;;3.10;81.30;;;;;;2075652;28;20022;-69
2021/03/07 03:11:31;;;;;;;25.90;15.82;;;3.10;81.00;;;;;;2072379;28;20120;-70
2021/03/07 03:12:34;;;;;;;26.08;16.25;;;3.10;81.00;;;;;;2080945;28;20524;-70
2021/03/07 03:13:37;;;;;;;24.63;16.02;;;3.10;81.00;;;;;;2081212;28;20026;-69
2021/03/07 03:14:38;;;;;;;26.10;16.98;;;3.10;81.70;;;;;;2072198;28;20034;-70
2021/03/07 03:15:39;;;;;;;28.30;17.40;;;3.10;80.90;;;;;;2072388;28;20026;-69
2021/03/07 03:16:46;;;;;;;27.00;16.65;;;3.10;80.90;;;;;;2080312;28;20635;-70
2021/03/07 03:17:51;;;;;;;26.05;16.85;;;3.00;81.00;;;;;;2081090;28;20377;-70
2021/03/07 03:18:52;;;;;;;26.35;17.13;;;3.00;80.90;;;;;;2080240;28;20017;-70
2021/03/07 03:19:55;;;;;;;30.15;17.98;;;3.00;81.10;;;;;;2071749;28;20028;-70
2021/03/07 03:20:59;;;;;;;29.83;18.52;;;3.00;80.80;;;;;;2072410;28;20034;-70
2021/03/07 03:22:01;;;;;;;28.63;18.75;;;3.00;80.20;;;;;;2080806;28;20473;-70
2021/03/07 03:23:01;;;;;;;27.10;17.77;;;3.00;79.90;;;;;;2071850;28;20490;-70
2021/03/07 03:24:02;;;;;;;30.48;17.63;;;2.90;80.00;;;;;;2072164;28;20045;-70
2021/03/07 03:25:05;;;;;;;28.08;17.80;;;2.90;80.10;;;;;;2080701;28;20069;-70
2021/03/07 03:26:08;;;;;;;27.15;17.25;;;2.90;79.70;;;;;;2080914;28;20026;-70
2021/03/07 03:27:11;;;;;;;29.23;18.20;;;2.90;79.40;;;;;;2080694;28;20033;-70
2021/03/07 03:28:12;;;;;;;29.38;18.60;;;2.90;79.20;;;;;;2080824;28;20034;-70
2021/03/07 03:29:13;;;;;;;26.48;16.58;;;2.90;79.30;;;;;;2079923;28;20029;-70
2021/03/07 03:30:16;;;;;;;26.73;17.08;;;2.90;79.40;;;;;;2080816;28;20053;-70
2021/03/07 03:31:19;;;;;;;25.50;16.20;;;2.90;79.70;;;;;;2080370;28;20105;-70
2021/03/07 03:32:20;;;;;;;25.55;15.95;;;2.90;80.10;;;;;;2080774;28;20029;-70
2021/03/07 03:33:23;;;;;;;24.15;15.82;;;2.90;80.30;;;;;;2071990;28;20400;-69
2021/03/07 03:34:23;;;;;;;26.92;16.70;;;2.90;80.60;;;;;;2072264;28;20021;-70
2021/03/07 03:35:24;;;;;;;27.60;16.98;;;2.90;80.80;;;;;;2072087;28;20026;-70
2021/03/07 03:36:25;;;;;;;25.77;16.15;;;2.90;80.50;;;;;;2072182;28;20185;-70
2021/03/07 03:37:26;;;;;;;28.20;17.60;;;3.00;80.30;;;;;;2080991;28;20042;-70
2021/03/07 03:38:45;;;;;;;27.00;16.85;;;3.00;79.80;;;;;;2081144;28;20021;-70
2021/03/07 03:39:48;;;;;;;26.48;16.80;;;3.00;79.70;;;;;;2080770;28;20552;-70
2021/03/07 03:40:53;;;;;;;26.33;16.38;;;2.90;79.50;;;;;;2081048;28;20037;-70
2021/03/07 03:42:05;;;;;;;26.50;17.20;;;3.00;79.50;;;;;;2081069;28;20060;-70
2021/03/07 03:43:08;;;;;;;26.38;16.30;;;3.00;79.50;;;;;;2082208;28;20091;-70
2021/03/07 03:44:11;;;;;;;25.58;16.38;;;3.00;79.30;;;;;;2074422;28;20037;-70
2021/03/07 03:45:13;;;;;;;28.17;17.30;;;3.00;79.20;;;;;;2074651;28;20137;-70
2021/03/07 03:46:14;;;;;;;27.35;17.33;;;3.00;79.20;;;;;;2074342;28;20073;-70
2021/03/07 03:47:16;;;;;;;25.75;16.77;;;3.00;79.20;;;;;;2074675;28;20058;-70
2021/03/07 03:48:20;;;;;;;27.35;16.80;;;3.00;79.30;;;;;;2082724;28;20071;-69
2021/03/07 03:49:32;;;;;;;25.73;16.83;;;3.00;79.30;;;;;;2082227;28;20535;-70
2021/03/07 03:50:38;;;;;;;28.30;18.13;;;3.00;79.20;;;;;;2082861;28;20501;-69
2021/03/07 03:51:42;;;;;;;28.23;17.20;;;2.90;79.10;;;;;;2074128;28;20018;-70
2021/03/07 03:52:45;;;;;;;27.60;17.42;;;3.00;79.00;;;;;;2074580;28;20133;-70
2021/03/07 03:53:47;;;;;;;25.85;16.33;;;2.90;78.90;;;;;;2083127;28;20021;-70
2021/03/07 03:55:14;;;;;;;27.20;17.38;;;3.00;79.00;;;;;;2074652;28;20599;-70
2021/03/07 03:56:17;;;;;;;29.98;18.02;;;3.00;79.00;;;;;;2078240;28;20033;-69
2021/03/07 03:57:20;;;;;;;29.00;17.92;;;3.00;78.80;;;;;;2083058;28;20033;-70
2021/03/07 03:58:24;;;;;;;33.17;20.17;;;3.00;78.60;;;;;;2083023;28;20031;-69
2021/03/07 03:59:29;;;;;;;34.90;19.95;;;3.00;78.10;;;;;;2081489;28;20030;-70
2021/03/07 04:00:34;;;;;;;31.42;19.60;;;3.10;78.70;;;;;;2082288;28;20030;-70
2021/03/07 04:01:36;;;;;;;31.58;19.50;;;3.10;77.60;;;;;;2082270;28;20473;-70
2021/03/07 04:02:37;;;;;;;32.97;20.00;;;3.10;77.40;;;;;;2073451;28;20018;-70
2021/03/07 04:03:39;;;;;;;32.05;20.25;;;3.10;77.50;;;;;;2065517;28;20076;-70
2021/03/07 04:04:40;;;;;;;32.05;20.55;;;3.10;77.40;;;;;;2073721;28;20057;-70
2021/03/07 04:05:45;;;;;;;30.08;19.40;;;3.10;77.20;;;;;;2073529;28;20485;-69
2021/03/07 04:06:46;;;;;;;29.75;19.42;;;3.10;77.00;;;;;;2074155;28;20144;-70
2021/03/07 04:07:48;;;;;;;30.50;19.15;;;3.10;76.90;;;;;;2082249;28;20026;-70
2021/03/07 04:08:50;;;;;;;32.03;19.83;;;3.10;77.00;;;;;;2064762;28;20482;-70
2021/03/07 04:09:53;;;;;;;31.17;19.27;;;3.10;76.80;;;;;;2065412;28;20023;-70
2021/03/07 04:10:56;;;;;;;31.20;19.67;;;3.10;77.00;;;;;;2073226;28;20133;-70
2021/03/07 04:11:57;;;;;;;29.83;18.88;;;3.10;77.00;;;;;;2073539;28;20022;-70
2021/03/07 04:13:00;;;;;;;29.73;19.20;;;3.10;77.20;;;;;;2082121;28;20481;-70
2021/03/07 04:14:02;;;;;;;32.92;20.02;;;3.10;77.20;;;;;;2082123;28;20030;-70
2021/03/07 04:15:03;;;;;;;31.52;19.92;;;3.10;77.00;;;;;;2082056;28;20501;-70
2021/03/07 04:16:04;;;;;;;30.63;19.55;;;3.10;76.90;;;;;;2073156;28;20025;-70
2021/03/07 04:17:05;;;;;;;28.73;18.77;;;3.10;76.90;;;;;;2073317;28;20579;-70
2021/03/07 04:18:08;;;;;;;28.95;18.52;;;3.10;76.90;;;;;;2082035;28;20026;-70
2021/03/07 04:19:08;;;;;;;28.85;18.83;;;3.10;77.00;;;;;;2081152;28;20045;-70
2021/03/07 04:20:10;;;;;;;27.38;18.05;;;3.00;76.90;;;;;;2082058;28;20480;-70
2021/03/07 04:21:12;;;;;;;26.63;17.52;;;3.10;77.00;;;;;;2081930;28;20025;-70
2021/03/07 04:22:14;;;;;;;27.17;17.33;;;3.00;76.90;;;;;;2082052;28;20501;-70
2021/03/07 04:23:15;;;;;;;27.35;17.65;;;3.00;77.10;;;;;;2081923;28;20112;-70
2021/03/07 04:24:16;;;;;;;26.63;17.50;;;3.00;77.10;;;;;;2081992;28;20152;-70
2021/03/07 04:25:17;;;;;;;27.50;17.58;;;3.00;77.40;;;;;;2081893;28;20025;-70
2021/03/07 04:26:18;;;;;;;26.88;17.52;;;3.00;77.50;;;;;;2082114;28;20481;-70
2021/03/07 04:27:19;;;;;;;25.30;16.40;;;3.00;77.80;;;;;;2081894;28;20120;-70
2021/03/07 04:28:20;;;;;;;26.42;16.92;;;3.00;78.10;;;;;;2081934;28;20052;-69
2021/03/07 04:29:21;;;;;;;24.73;16.27;;;3.00;78.50;;;;;;2081000;28;20055;-69
2021/03/07 04:30:23;;;;;;;25.48;16.45;;;3.00;78.40;;;;;;2081966;28;20087;-70
2021/03/07 04:31:24;;;;;;;28.60;19.00;;;3.00;78.40;;;;;;2081627;28;20412;-70
2021/03/07 04:32:25;;;;;;;30.27;19.40;;;3.00;78.40;;;;;;2081826;28;20039;-70
2021/03/07 04:33:26;;;;;;;31.60;20.05;;;3.00;77.60;;;;;;2073153;28;20536;-70
2021/03/07 04:34:27;;;;;;;30.80;19.58;;;3.00;77.30;;;;;;2057135;28;20034;-69
2021/03/07 04:35:29;;;;;;;32.10;20.65;;;3.00;77.20;;;;;;2065189;28;20030;-69
2021/03/07 04:36:30;;;;;;;32.22;20.42;;;3.00;77.20;;;;;;2081855;28;20021;-70
2021/03/07 04:37:31;;;;;;;33.70;21.83;;;3.10;76.90;;;;;;2081961;28;20070;-70
2021/03/07 04:38:33;;;;;;;32.85;21.25;;;3.10;76.50;;;;;;2073175;28;20034;-69
2021/03/07 04:39:34;;;;;;;32.38;20.75;;;3.10;76.00;;;;;;2072594;28;20514;-69
2021/03/07 04:40:37;;;;;;;32.92;20.67;;;3.10;76.00;;;;;;2081262;28;20041;-69
2021/03/07 04:41:38;;;;;;;29.75;19.38;;;3.10;76.10;;;;;;2081890;28;20112;-70
2021/03/07 04:42:41;;;;;;;30.60;19.40;;;3.10;76.50;;;;;;2081928;28;20052;-70
2021/03/07 04:43:49;;;;;;;29.75;18.70;;;3.00;76.90;;;;;;2073025;28;20413;-70
2021/03/07 04:44:49;;;;;;;28.92;18.90;;;3.00;77.10;;;;;;2073938;28;20026;-69
2021/03/07 04:45:50;;;;;;;29.10;18.90;;;3.00;77.30;;;;;;2081830;28;20113;-69
2021/03/07 04:46:51;;;;;;;29.17;18.58;;;3.00;77.40;;;;;;2081857;28;20029;-69
2021/03/07 04:47:52;;;;;;;31.23;19.75;;;3.00;77.50;;;;;;2081839;28;20079;-69
2021/03/07 04:48:54;;;;;;;28.42;18.83;;;3.00;77.50;;;;;;2072418;28;20485;-69
2021/03/07 04:49:55;;;;;;;28.25;18.27;;;3.00;77.70;;;;;;2072965;28;20399;-70
2021/03/07 04:50:55;;;;;;;29.05;19.00;;;3.00;78.10;;;;;;2081791;28;20040;-69
2021/03/07 04:51:56;;;;;;;27.02;18.05;;;2.90;78.00;;;;;;2081680;28;20392;-70
2021/03/07 04:52:56;;;;;;;27.20;17.77;;;2.90;78.10;;;;;;2081570;28;20022;-70
2021/03/07 04:53:57;;;;;;;27.27;17.25;;;2.90;78.30;;;;;;2081733;28;20026;-69
2021/03/07 04:54:58;;;;;;;27.83;17.63;;;2.90;79.10;;;;;;2081179;28;20022;-69
2021/03/07 04:55:58;;;;;;;27.25;17.27;;;2.90;78.30;;;;;;2081527;28;20036;-70
2021/03/07 04:57:05;;;;;;;27.02;17.77;;;2.80;78.20;;;;;;2081559;28;20029;-69
2021/03/07 04:58:05;;;;;;;26.45;17.15;;;2.80;78.40;;;;;;2072993;28;20101;-70
2021/03/07 04:59:06;;;;;;;27.48;17.80;;;2.80;78.40;;;;;;2071973;28;20464;-69
2021/03/07 05:00:09;;;;;;;26.98;17.23;;;2.80;78.20;;;;;;2081198;28;20037;-69
2021/03/07 05:01:10;;;;;;;26.85;17.80;;;2.80;78.00;;;;;;2081616;28;20022;-70
2021/03/07 05:02:10;;;;;;;30.15;19.10;;;2.80;77.70;;;;;;2081749;28;20132;-70
2021/03/07 05:03:11;;;;;;;29.20;19.05;;;2.80;77.10;;;;;;2081737;28;20107;-70
2021/03/07 05:04:12;;;;;;;28.77;18.77;;;2.80;76.70;;;;;;2081731;28;20071;-70
2021/03/07 05:05:13;;;;;;;28.38;18.10;;;2.80;76.60;;;;;;2081684;28;20388;-70
2021/03/07 05:06:14;;;;;;;29.65;19.40;;;2.80;76.70;;;;;;2081622;28;20385;-70
2021/03/07 05:07:14;;;;;;;29.75;19.05;;;2.80;76.60;;;;;;2081620;28;20037;-70
2021/03/07 05:08:15;;;;;;;27.52;17.67;;;2.80;76.50;;;;;;2072805;28;20370;-70
2021/03/07 05:09:15;;;;;;;28.60;18.77;;;2.80;76.20;;;;;;2071963;28;20405;-69
2021/03/07 05:10:16;;;;;;;28.75;18.48;;;2.80;76.10;;;;;;2081595;28;20025;-70
2021/03/07 05:11:17;;;;;;;27.92;17.85;;;2.80;75.80;;;;;;2081472;28;20029;-70
2021/03/07 05:12:18;;;;;;;27.08;18.05;;;2.80;75.60;;;;;;2081607;28;20485;-70
2021/03/07 05:13:19;;;;;;;24.15;16.40;;;2.90;75.70;;;;;;2072710;28;20061;-70
2021/03/07 05:14:20;;;;;;;24.73;16.63;;;2.80;75.70;;;;;;2072906;28;20437;-69
2021/03/07 05:15:20;;;;;;;25.17;16.40;;;2.80;76.00;;;;;;2072741;28;20018;-69
2021/03/07 05:16:21;;;;;;;27.10;17.77;;;2.80;76.30;;;;;;2072847;28;20037;-70
2021/03/07 05:17:24;;;;;;;27.25;17.77;;;2.90;76.90;;;;;;2072705;28;20033;-69
2021/03/07 05:18:24;;;;;;;27.35;17.67;;;2.90;77.00;;;;;;2073154;28;20022;-70
2021/03/07 05:19:25;;;;;;;26.98;17.30;;;2.80;76.80;;;;;;2071762;28;20374;-70